Aviation Digital Data Service (ADDS)

Output produced by METARs form (2238 UTC 30 March 2017)
found at http://www.aviationweather.gov/adds/metars/
 
KOAJ 301731Z 3018/3118 06009KT P6SM OVC090 
     FM302300 13010KT P6SM OVC080 
     FM310800 15010KT 6SM -SHRA OVC050 
     FM311100 15010KT 6SM -TSRA OVC025CB 
     FM311200 16010KT 5SM TSRA OVC015CB 
     FM311600 18010KT P6SM VCTS OVC025CB AMD LTD TO CLD VIS AND WIND
       
KOAK 301727Z 3018/3124 30017G24KT P6SM FEW020 
     FM302200 29024G34KT P6SM FEW060 SCT200 
     FM310500 29012G20KT P6SM FEW030 SCT060 SCT250 
     FM310900 33012KT P6SM SKC 
     FM311900 32014G20KT P6SM SKC
       
TAF AMD KOFF 301942Z 3019/3124 01012G18KT 9999 OVC008 QNH2966INS 
     BECMG 3020/3021 01009KT 9999 OVC010 QNH2968INS 
     BECMG 3023/3024 01009KT 9999 OVC008 QNH2968INS 
     BECMG 3105/3106 01009KT 9999 OVC015 QNH2976INS 
     BECMG 3114/3115 02012KT 9999 BKN030 QNH2998INS TX08/3021Z TN05/3112Z
       
KOFK 301725Z 3018/3118 02011KT P6SM OVC010 
     FM310600 03005KT 6SM BR OVC008 
     FM311500 03008KT P6SM BKN010
       
KOGB 302217Z 3022/3118 12009KT P6SM VCSH BKN050 BKN080 
     TEMPO 3022/3023 VRB15G30KT 5SM -SHRA BR SCT010 BKN030 OVC070 
     FM310600 17006KT P6SM VCSH OVC008 
     FM310900 19008KT 4SM -SHRA BR OVC004 
     FM311400 24012G20KT P6SM OVC050
       
KOGD 302220Z 3022/3118 18011KT P6SM -SHRA SCT030 OVC050 
     FM302300 25013G18KT P6SM -RA SCT020 BKN035 
     TEMPO 3023/3024 3SM RA BKN015 OVC025 
     FM310700 35010KT P6SM VCSH SCT030 BKN050
       
KOKC 301720Z 3018/3118 32015G25KT P6SM SCT027 BKN030 
     FM301930 33013KT P6SM FEW030 
     FM310200 06008KT P6SM SKC 
     FM310900 09010KT P6SM FEW010 BKN035 
     TEMPO 3110/3113 5SM BR BKN012 
     FM311300 10013KT P6SM FEW025 BKN035
       
KOLF 301724Z 3018/3118 VRB05KT P6SM BKN130 
     FM310300 24004KT P6SM VCSH BKN100 
     FM310500 03004KT P6SM -SHRA BKN080 
     FM311100 05009KT P6SM -SHRA OVC030 
     FM311200 05009KT P6SM VCSH OVC015
       
KOLM 301720Z 3018/3118 VRB04KT P6SM SCT030 
     FM302000 29010KT P6SM VCSH BKN040 
     FM310300 VRB03KT P6SM SCT040 
     FM310800 00000KT 3SM BR SCT005 
     TEMPO 3110/3112 1SM BR BKN005 
     FM311700 23005KT P6SM SCT010 BKN200
       
KOLS 301738Z 3018/3118 19010KT P6SM SKC 
     FM302000 22015G25KT P6SM SKC 
     FM302200 22020G30KT P6SM SKC 
     FM310900 19015G25KT P6SM SCT150
       
KOMA 301725Z 3018/3118 02015KT P6SM OVC010 
     FM302200 36008KT P6SM BKN010 
     FM310900 01007KT 6SM BR BKN008 
     FM311400 01008KT P6SM BKN010
       
KONP 301735Z 3018/3118 32008KT P6SM -SHRA SCT025 BKN040 
     FM310000 33004KT P6SM SCT040 
     FM310600 06003KT P6SM SCT015
       
KONT 301731Z 3018/3124 23007KT P6SM SKC 
     FM302000 25015G25KT P6SM SKC 
     FM310600 VRB06KT P6SM SKC 
     FM310900 35010KT P6SM SKC 
     FM312000 25009KT P6SM SKC
       
KOPF 302100Z 3021/3118 16012KT P6SM SCT045 
     FM310000 15005KT P6SM FEW030 SCT050 
     FM311400 17015KT P6SM SCT035
       
KORD 302107Z 3021/3124 05012G18KT 6SM BR OVC004 
     FM302300 04012KT 5SM -SHRA BR OVC004 
     FM310300 03013G17KT 3SM -RADZ BR OVC004 
     FM311100 02012G20KT 6SM BR VCSH OVC006 
     FM311800 01015G25KT P6SM BKN013
       
KORF 301735Z 3018/3118 10010KT P6SM BKN070 
     FM310600 13009KT P6SM OVC040 
     FM311000 15011KT P6SM SHRA OVC050 
     FM311200 15014G22KT 5SM SHRA OVC040 
     FM311500 17016G25KT 3SM SHRA OVC008
       
KORH 301736Z 3018/3118 01004KT P6SM FEW150 
     FM310100 06004KT P6SM OVC120 
     FM310200 29004KT P6SM OVC110 
     FM310700 35005KT P6SM OVC040 
     FM311000 07004KT 4SM -SN BR OVC020 
     FM311200 08004KT 2SM -SN OVC010 
     FM311500 09004KT 1/2SM SN OVC010
       
KOTH 301739Z 3018/3118 35008KT P6SM VCSH SCT015 SCT025 BKN040 
     FM302100 35012G20KT P6SM SCT025 BKN040 
     FM310300 36010KT P6SM SCT025 BKN050 
     FM310500 13004KT P6SM BKN025 OVC035
       
KOTM 301742Z 3018/3118 04012G20KT 4SM BR VCSH OVC006 
     FM301900 03012KT 2SM BR VCSH OVC003 
     FM302200 01012KT 2SM BR VCSH OVC007 
     FM310300 35013G19KT 4SM BR OVC007 
     FM311600 35011KT P6SM BKN010
       
KOUN 301720Z 3018/3118 31014G24KT P6SM SCT024 BKN030 
     FM301900 33013KT P6SM FEW030 
     FM310200 06008KT P6SM SKC 
     FM310900 09010KT P6SM FEW010 BKN035 
     TEMPO 3110/3113 5SM BR BKN012 
     FM311300 10013KT P6SM FEW025 BKN035
       
KOWB 302108Z 3021/3118 20013G21KT P6SM VCTS SCT035CB BKN060 
     TEMPO 3022/3024 3SM TSRA BR BKN015CB 
     FM310000 23009KT P6SM SCT040 
     FM310500 23006KT P6SM VCSH SCT025 BKN040 
     FM311100 24007KT P6SM OVC015 
     FM311600 26012G19KT P6SM OVC025
       
KOXR 301740Z 3018/3118 VRB05KT P6SM SCT250 
     FM302000 27015KT P6SM SCT250 
     FM302200 28025G35KT P6SM SCT250 
     FM310300 28015G25KT P6SM SKC 
     FM310600 32010KT P6SM SKC 
     FM311200 34011KT P6SM SKC
       
TAF AMD KOZR 301906Z 3019/3122 15012G18KT 9999 SCT040 SCT180 QNH2985INS 
     BECMG 3023/3024 17012KT 9999 SCT020 BKN040 QNH2978INS 
     BECMG 3101/3102 22012KT 8000 -SHRA VCTS SCT015CB OVC030 QNH2976INS 
     BECMG 3102/3103 22015G25KT 2400 -TSRA OVC010CB QNH2975INS 
     TEMPO 3102/3107 23030G40KT 
     BECMG 3106/3107 23009KT 8000 -RA OVC008 QNH2973INS 
     BECMG 3111/3112 26009KT 9999 NSW OVC012 QNH2976INS 
     BECMG 3114/3115 27012KT 9999 BKN015 QNH2983INS 
     BECMG 3117/3118 28012KT 9999 FEW020 QNH2985INS TX29/3019Z TN18/3105Z